sensor_id;sensor_type;location;lat;lon;timestamp;P1;durP1;ratioP1;P2;durP2;ratioP2
70301;SDS011;57706;56.326;43.882;2023-11-25T00:00:19;13.27;;;6.22;;
70301;SDS011;57706;56.326;43.882;2023-11-25T00:02:48;15.23;;;6.55;;
70301;SDS011;57706;56.326;43.882;2023-11-25T00:05:14;11.75;;;6.18;;
70301;SDS011;57706;56.326;43.882;2023-11-25T00:07:41;12.95;;;7.07;;
70301;SDS011;57706;56.326;43.882;2023-11-25T00:10:07;13.52;;;6.75;;
70301;SDS011;57706;56.326;43.882;2023-11-25T00:12:33;14.13;;;6.07;;
70301;SDS011;57706;56.326;43.882;2023-11-25T00:15:00;12.68;;;7.10;;
70301;SDS011;57706;56.326;43.882;2023-11-25T00:17:28;11.75;;;6.05;;
70301;SDS011;57706;56.326;43.882;2023-11-25T00:19:56;15.68;;;6.07;;
70301;SDS011;57706;56.326;43.882;2023-11-25T00:22:22;12.50;;;6.75;;
70301;SDS011;57706;56.326;43.882;2023-11-25T00:24:48;12.93;;;5.32;;
70301;SDS011;57706;56.326;43.882;2023-11-25T00:27:15;10.52;;;6.13;;
70301;SDS011;57706;56.326;43.882;2023-11-25T00:29:41;12.88;;;6.88;;
70301;SDS011;57706;56.326;43.882;2023-11-25T00:32:07;11.77;;;6.53;;
70301;SDS011;57706;56.326;43.882;2023-11-25T00:34:33;13.50;;;7.25;;
70301;SDS011;57706;56.326;43.882;2023-11-25T00:36:59;13.77;;;7.18;;
70301;SDS011;57706;56.326;43.882;2023-11-25T00:39:25;15.38;;;7.22;;
70301;SDS011;57706;56.326;43.882;2023-11-25T00:41:53;13.45;;;7.05;;
70301;SDS011;57706;56.326;43.882;2023-11-25T00:44:19;13.75;;;6.45;;
70301;SDS011;57706;56.326;43.882;2023-11-25T00:49:10;14.02;;;6.15;;
70301;SDS011;57706;56.326;43.882;2023-11-25T00:51:39;15.23;;;7.32;;
70301;SDS011;57706;56.326;43.882;2023-11-25T00:56:31;13.98;;;5.97;;
70301;SDS011;57706;56.326;43.882;2023-11-25T00:58:57;13.77;;;5.57;;
70301;SDS011;57706;56.326;43.882;2023-11-25T01:01:23;15.48;;;6.78;;
70301;SDS011;57706;56.326;43.882;2023-11-25T01:03:50;14.38;;;6.55;;
70301;SDS011;57706;56.326;43.882;2023-11-25T01:06:17;15.25;;;5.90;;
70301;SDS011;57706;56.326;43.882;2023-11-25T01:11:08;13.65;;;6.25;;
70301;SDS011;57706;56.326;43.882;2023-11-25T01:16:00;13.38;;;6.53;;
70301;SDS011;57706;56.326;43.882;2023-11-25T01:20:52;14.00;;;6.53;;
70301;SDS011;57706;56.326;43.882;2023-11-25T01:23:21;13.50;;;6.53;;
70301;SDS011;57706;56.326;43.882;2023-11-25T01:25:48;13.85;;;6.70;;
70301;SDS011;57706;56.326;43.882;2023-11-25T01:28:14;13.02;;;6.95;;
70301;SDS011;57706;56.326;43.882;2023-11-25T01:30:40;14.55;;;6.50;;
70301;SDS011;57706;56.326;43.882;2023-11-25T01:35:32;14.75;;;5.97;;
70301;SDS011;57706;56.326;43.882;2023-11-25T01:37:58;12.25;;;5.10;;
70301;SDS011;57706;56.326;43.882;2023-11-25T01:42:50;12.00;;;6.28;;
70301;SDS011;57706;56.326;43.882;2023-11-25T01:45:20;15.00;;;6.30;;
70301;SDS011;57706;56.326;43.882;2023-11-25T01:50:12;11.95;;;6.03;;
70301;SDS011;57706;56.326;43.882;2023-11-25T01:55:06;12.43;;;5.43;;
70301;SDS011;57706;56.326;43.882;2023-11-25T01:57:34;14.70;;;6.18;;
70301;SDS011;57706;56.326;43.882;2023-11-25T02:00:01;11.73;;;6.40;;
70301;SDS011;57706;56.326;43.882;2023-11-25T02:02:38;12.82;;;6.70;;
70301;SDS011;57706;56.326;43.882;2023-11-25T02:05:06;16.98;;;6.05;;
70301;SDS011;57706;56.326;43.882;2023-11-25T02:07:33;13.90;;;6.45;;
70301;SDS011;57706;56.326;43.882;2023-11-25T02:10:00;12.73;;;6.35;;
70301;SDS011;57706;56.326;43.882;2023-11-25T02:14:51;10.82;;;5.28;;
70301;SDS011;57706;56.326;43.882;2023-11-25T02:17:18;12.45;;;6.57;;
70301;SDS011;57706;56.326;43.882;2023-11-25T02:19:46;13.23;;;6.10;;
70301;SDS011;57706;56.326;43.882;2023-11-25T02:22:14;14.60;;;6.05;;
70301;SDS011;57706;56.326;43.882;2023-11-25T02:24:41;16.77;;;6.65;;
70301;SDS011;57706;56.326;43.882;2023-11-25T02:29:33;9.15;;;5.22;;
70301;SDS011;57706;56.326;43.882;2023-11-25T02:32:06;16.33;;;6.38;;
70301;SDS011;57706;56.326;43.882;2023-11-25T02:34:32;12.68;;;5.97;;
70301;SDS011;57706;56.326;43.882;2023-11-25T02:39:24;14.52;;;6.28;;
70301;SDS011;57706;56.326;43.882;2023-11-25T02:41:51;17.88;;;5.90;;
70301;SDS011;57706;56.326;43.882;2023-11-25T02:44:21;13.52;;;6.28;;
70301;SDS011;57706;56.326;43.882;2023-11-25T02:46:49;15.00;;;6.95;;
70301;SDS011;57706;56.326;43.882;2023-11-25T02:51:50;14.05;;;7.05;;
70301;SDS011;57706;56.326;43.882;2023-11-25T02:54:17;14.57;;;7.32;;
70301;SDS011;57706;56.326;43.882;2023-11-25T02:56:44;14.38;;;6.55;;
70301;SDS011;57706;56.326;43.882;2023-11-25T02:59:11;14.95;;;6.93;;
70301;SDS011;57706;56.326;43.882;2023-11-25T03:01:38;14.35;;;7.45;;
70301;SDS011;57706;56.326;43.882;2023-11-25T03:04:16;17.63;;;7.38;;
70301;SDS011;57706;56.326;43.882;2023-11-25T03:06:45;14.52;;;7.53;;
70301;SDS011;57706;56.326;43.882;2023-11-25T03:09:14;17.15;;;8.30;;
70301;SDS011;57706;56.326;43.882;2023-11-25T03:11:40;24.00;;;11.38;;
70301;SDS011;57706;56.326;43.882;2023-11-25T03:14:06;17.08;;;7.88;;
70301;SDS011;57706;56.326;43.882;2023-11-25T03:18:58;19.77;;;7.57;;
70301;SDS011;57706;56.326;43.882;2023-11-25T03:21:25;21.00;;;8.45;;
70301;SDS011;57706;56.326;43.882;2023-11-25T03:26:16;21.38;;;8.30;;
70301;SDS011;57706;56.326;43.882;2023-11-25T03:28:43;17.75;;;7.78;;
70301;SDS011;57706;56.326;43.882;2023-11-25T03:31:10;21.20;;;8.43;;
70301;SDS011;57706;56.326;43.882;2023-11-25T03:33:37;18.70;;;9.07;;
70301;SDS011;57706;56.326;43.882;2023-11-25T03:36:04;18.17;;;9.30;;
70301;SDS011;57706;56.326;43.882;2023-11-25T03:38:30;19.75;;;9.38;;
70301;SDS011;57706;56.326;43.882;2023-11-25T03:43:22;18.50;;;7.88;;
70301;SDS011;57706;56.326;43.882;2023-11-25T03:45:51;18.45;;;8.70;;
70301;SDS011;57706;56.326;43.882;2023-11-25T03:48:17;20.80;;;8.95;;
70301;SDS011;57706;56.326;43.882;2023-11-25T03:50:44;19.75;;;8.90;;
70301;SDS011;57706;56.326;43.882;2023-11-25T03:53:11;19.30;;;8.93;;
70301;SDS011;57706;56.326;43.882;2023-11-25T03:55:38;18.83;;;9.60;;
70301;SDS011;57706;56.326;43.882;2023-11-25T03:58:04;22.73;;;9.18;;
70301;SDS011;57706;56.326;43.882;2023-11-25T04:02:57;21.05;;;9.57;;
70301;SDS011;57706;56.326;43.882;2023-11-25T04:05:23;22.08;;;8.73;;
70301;SDS011;57706;56.326;43.882;2023-11-25T04:07:49;23.90;;;9.85;;
70301;SDS011;57706;56.326;43.882;2023-11-25T04:10:16;21.27;;;9.73;;
70301;SDS011;57706;56.326;43.882;2023-11-25T04:12:45;23.13;;;10.07;;
70301;SDS011;57706;56.326;43.882;2023-11-25T04:15:13;25.25;;;10.40;;
70301;SDS011;57706;56.326;43.882;2023-11-25T04:17:41;26.30;;;10.70;;
70301;SDS011;57706;56.326;43.882;2023-11-25T04:20:08;24.63;;;10.43;;
70301;SDS011;57706;56.326;43.882;2023-11-25T04:22:50;27.45;;;12.02;;
70301;SDS011;57706;56.326;43.882;2023-11-25T04:25:17;23.05;;;9.77;;
70301;SDS011;57706;56.326;43.882;2023-11-25T04:27:45;28.92;;;11.68;;
70301;SDS011;57706;56.326;43.882;2023-11-25T04:30:12;26.92;;;11.55;;
70301;SDS011;57706;56.326;43.882;2023-11-25T04:32:39;24.30;;;10.50;;
70301;SDS011;57706;56.326;43.882;2023-11-25T04:35:06;26.30;;;10.50;;
70301;SDS011;57706;56.326;43.882;2023-11-25T04:37:33;28.38;;;12.13;;
70301;SDS011;57706;56.326;43.882;2023-11-25T04:39:59;24.80;;;10.23;;
70301;SDS011;57706;56.326;43.882;2023-11-25T04:44:51;25.27;;;10.38;;
70301;SDS011;57706;56.326;43.882;2023-11-25T04:47:17;24.00;;;10.02;;
70301;SDS011;57706;56.326;43.882;2023-11-25T04:52:08;20.02;;;9.20;;
70301;SDS011;57706;56.326;43.882;2023-11-25T04:54:34;22.02;;;9.73;;
70301;SDS011;57706;56.326;43.882;2023-11-25T04:57:01;23.50;;;9.63;;
70301;SDS011;57706;56.326;43.882;2023-11-25T04:59:28;20.77;;;9.82;;
70301;SDS011;57706;56.326;43.882;2023-11-25T05:01:54;24.45;;;11.52;;
70301;SDS011;57706;56.326;43.882;2023-11-25T05:04:21;21.88;;;9.85;;
70301;SDS011;57706;56.326;43.882;2023-11-25T05:06:47;25.27;;;10.82;;
70301;SDS011;57706;56.326;43.882;2023-11-25T05:11:44;21.85;;;8.98;;
70301;SDS011;57706;56.326;43.882;2023-11-25T05:14:10;21.13;;;10.02;;
70301;SDS011;57706;56.326;43.882;2023-11-25T05:16:36;22.00;;;9.50;;
70301;SDS011;57706;56.326;43.882;2023-11-25T05:19:02;22.20;;;11.02;;
70301;SDS011;57706;56.326;43.882;2023-11-25T05:21:29;25.25;;;11.77;;
70301;SDS011;57706;56.326;43.882;2023-11-25T05:23:55;26.52;;;12.70;;
70301;SDS011;57706;56.326;43.882;2023-11-25T05:28:48;29.70;;;11.82;;
70301;SDS011;57706;56.326;43.882;2023-11-25T05:31:14;24.50;;;12.18;;
70301;SDS011;57706;56.326;43.882;2023-11-25T05:36:06;24.05;;;12.13;;
70301;SDS011;57706;56.326;43.882;2023-11-25T05:38:32;29.88;;;11.35;;
70301;SDS011;57706;56.326;43.882;2023-11-25T05:41:00;28.00;;;12.60;;
70301;SDS011;57706;56.326;43.882;2023-11-25T05:43:28;33.15;;;13.15;;
70301;SDS011;57706;56.326;43.882;2023-11-25T05:45:54;39.10;;;15.40;;
70301;SDS011;57706;56.326;43.882;2023-11-25T05:50:48;34.70;;;12.80;;
70301;SDS011;57706;56.326;43.882;2023-11-25T05:53:14;39.45;;;14.02;;
70301;SDS011;57706;56.326;43.882;2023-11-25T05:58:06;33.28;;;13.98;;
70301;SDS011;57706;56.326;43.882;2023-11-25T06:02:58;40.85;;;17.38;;
70301;SDS011;57706;56.326;43.882;2023-11-25T06:07:53;42.70;;;17.73;;
70301;SDS011;57706;56.326;43.882;2023-11-25T06:10:19;43.97;;;20.35;;
70301;SDS011;57706;56.326;43.882;2023-11-25T06:15:11;42.95;;;20.73;;
70301;SDS011;57706;56.326;43.882;2023-11-25T06:17:39;47.10;;;20.15;;
70301;SDS011;57706;56.326;43.882;2023-11-25T06:20:05;56.25;;;20.88;;
70301;SDS011;57706;56.326;43.882;2023-11-25T06:22:34;44.63;;;20.75;;
70301;SDS011;57706;56.326;43.882;2023-11-25T06:25:00;45.30;;;19.02;;
70301;SDS011;57706;56.326;43.882;2023-11-25T06:27:30;49.13;;;20.45;;
70301;SDS011;57706;56.326;43.882;2023-11-25T06:29:56;50.97;;;23.60;;
70301;SDS011;57706;56.326;43.882;2023-11-25T06:32:23;50.30;;;21.00;;
70301;SDS011;57706;56.326;43.882;2023-11-25T06:34:52;52.72;;;21.33;;
70301;SDS011;57706;56.326;43.882;2023-11-25T06:37:22;52.90;;;21.60;;
70301;SDS011;57706;56.326;43.882;2023-11-25T06:39:48;45.03;;;19.40;;
70301;SDS011;57706;56.326;43.882;2023-11-25T06:44:40;45.65;;;19.70;;
70301;SDS011;57706;56.326;43.882;2023-11-25T06:47:07;44.78;;;18.27;;
70301;SDS011;57706;56.326;43.882;2023-11-25T06:52:00;55.42;;;22.48;;
70301;SDS011;57706;56.326;43.882;2023-11-25T06:56:52;41.30;;;18.20;;
70301;SDS011;57706;56.326;43.882;2023-11-25T07:01:44;41.45;;;18.65;;
70301;SDS011;57706;56.326;43.882;2023-11-25T07:04:11;53.47;;;21.58;;
70301;SDS011;57706;56.326;43.882;2023-11-25T07:06:39;51.10;;;22.33;;
70301;SDS011;57706;56.326;43.882;2023-11-25T07:11:31;43.33;;;18.10;;
70301;SDS011;57706;56.326;43.882;2023-11-25T07:13:58;48.30;;;19.25;;
70301;SDS011;57706;56.326;43.882;2023-11-25T07:18:50;47.17;;;17.85;;
70301;SDS011;57706;56.326;43.882;2023-11-25T07:21:16;44.92;;;19.55;;
70301;SDS011;57706;56.326;43.882;2023-11-25T07:23:42;41.95;;;18.70;;
70301;SDS011;57706;56.326;43.882;2023-11-25T07:26:09;41.05;;;17.40;;
70301;SDS011;57706;56.326;43.882;2023-11-25T07:28:38;33.15;;;14.93;;
70301;SDS011;57706;56.326;43.882;2023-11-25T07:31:05;30.35;;;15.23;;
70301;SDS011;57706;56.326;43.882;2023-11-25T07:33:31;32.50;;;16.35;;
70301;SDS011;57706;56.326;43.882;2023-11-25T07:35:57;34.60;;;13.27;;
70301;SDS011;57706;56.326;43.882;2023-11-25T07:38:24;33.95;;;13.63;;
70301;SDS011;57706;56.326;43.882;2023-11-25T07:40:50;29.48;;;14.90;;
70301;SDS011;57706;56.326;43.882;2023-11-25T07:43:16;30.95;;;16.33;;
70301;SDS011;57706;56.326;43.882;2023-11-25T07:45:42;34.50;;;14.88;;
70301;SDS011;57706;56.326;43.882;2023-11-25T07:48:10;32.47;;;15.85;;
70301;SDS011;57706;56.326;43.882;2023-11-25T07:50:36;35.20;;;16.88;;
70301;SDS011;57706;56.326;43.882;2023-11-25T07:53:03;35.88;;;16.10;;
70301;SDS011;57706;56.326;43.882;2023-11-25T07:55:29;34.78;;;16.58;;
70301;SDS011;57706;56.326;43.882;2023-11-25T07:57:55;29.85;;;13.27;;
70301;SDS011;57706;56.326;43.882;2023-11-25T08:00:25;29.20;;;14.48;;
70301;SDS011;57706;56.326;43.882;2023-11-25T08:03:02;27.35;;;15.18;;
70301;SDS011;57706;56.326;43.882;2023-11-25T08:05:28;28.55;;;13.70;;
70301;SDS011;57706;56.326;43.882;2023-11-25T08:07:55;23.65;;;11.05;;
70301;SDS011;57706;56.326;43.882;2023-11-25T08:10:23;26.48;;;12.50;;
70301;SDS011;57706;56.326;43.882;2023-11-25T08:12:50;24.25;;;10.45;;
70301;SDS011;57706;56.326;43.882;2023-11-25T08:15:16;28.52;;;12.80;;
70301;SDS011;57706;56.326;43.882;2023-11-25T08:17:44;26.38;;;12.88;;
70301;SDS011;57706;56.326;43.882;2023-11-25T08:20:12;29.77;;;13.38;;
70301;SDS011;57706;56.326;43.882;2023-11-25T08:22:38;33.60;;;15.00;;
70301;SDS011;57706;56.326;43.882;2023-11-25T08:25:05;33.80;;;14.13;;
70301;SDS011;57706;56.326;43.882;2023-11-25T08:27:34;31.48;;;14.52;;
70301;SDS011;57706;56.326;43.882;2023-11-25T08:30:01;29.33;;;13.93;;
70301;SDS011;57706;56.326;43.882;2023-11-25T08:32:30;31.48;;;16.00;;
70301;SDS011;57706;56.326;43.882;2023-11-25T08:34:56;29.45;;;14.55;;
70301;SDS011;57706;56.326;43.882;2023-11-25T08:37:24;32.03;;;15.00;;
70301;SDS011;57706;56.326;43.882;2023-11-25T08:39:54;35.60;;;16.08;;
70301;SDS011;57706;56.326;43.882;2023-11-25T08:42:21;26.80;;;13.02;;
70301;SDS011;57706;56.326;43.882;2023-11-25T08:44:51;33.63;;;14.27;;
70301;SDS011;57706;56.326;43.882;2023-11-25T08:47:17;30.90;;;15.43;;
70301;SDS011;57706;56.326;43.882;2023-11-25T08:49:44;28.02;;;13.60;;
70301;SDS011;57706;56.326;43.882;2023-11-25T08:52:14;29.73;;;13.27;;
70301;SDS011;57706;56.326;43.882;2023-11-25T08:54:41;30.88;;;14.63;;
70301;SDS011;57706;56.326;43.882;2023-11-25T08:57:06;30.13;;;12.95;;
70301;SDS011;57706;56.326;43.882;2023-11-25T08:59:37;26.30;;;12.52;;
70301;SDS011;57706;56.326;43.882;2023-11-25T09:02:04;28.88;;;12.93;;
70301;SDS011;57706;56.326;43.882;2023-11-25T09:04:31;25.88;;;12.88;;
70301;SDS011;57706;56.326;43.882;2023-11-25T09:07:01;30.17;;;13.95;;
70301;SDS011;57706;56.326;43.882;2023-11-25T09:09:28;27.55;;;12.30;;
70301;SDS011;57706;56.326;43.882;2023-11-25T09:11:54;26.45;;;13.73;;
70301;SDS011;57706;56.326;43.882;2023-11-25T09:14:20;34.45;;;14.90;;
70301;SDS011;57706;56.326;43.882;2023-11-25T09:16:46;26.30;;;12.48;;
70301;SDS011;57706;56.326;43.882;2023-11-25T09:19:12;29.08;;;13.07;;
70301;SDS011;57706;56.326;43.882;2023-11-25T09:21:39;27.77;;;12.20;;
70301;SDS011;57706;56.326;43.882;2023-11-25T09:24:05;27.98;;;14.25;;
70301;SDS011;57706;56.326;43.882;2023-11-25T09:26:31;23.88;;;12.27;;
70301;SDS011;57706;56.326;43.882;2023-11-25T09:28:56;28.75;;;13.45;;
70301;SDS011;57706;56.326;43.882;2023-11-25T09:31:22;27.55;;;13.30;;
70301;SDS011;57706;56.326;43.882;2023-11-25T09:33:51;24.48;;;12.60;;
70301;SDS011;57706;56.326;43.882;2023-11-25T09:36:18;24.48;;;11.85;;
70301;SDS011;57706;56.326;43.882;2023-11-25T09:38:44;26.42;;;13.75;;
70301;SDS011;57706;56.326;43.882;2023-11-25T09:41:13;29.45;;;14.57;;
70301;SDS011;57706;56.326;43.882;2023-11-25T09:43:41;25.63;;;12.65;;
70301;SDS011;57706;56.326;43.882;2023-11-25T09:46:08;24.80;;;12.27;;
70301;SDS011;57706;56.326;43.882;2023-11-25T09:48:34;23.23;;;12.10;;
70301;SDS011;57706;56.326;43.882;2023-11-25T09:51:01;25.17;;;11.95;;
70301;SDS011;57706;56.326;43.882;2023-11-25T09:53:28;29.52;;;12.30;;
70301;SDS011;57706;56.326;43.882;2023-11-25T09:56:02;25.35;;;12.27;;
70301;SDS011;57706;56.326;43.882;2023-11-25T10:01:02;26.88;;;11.65;;
70301;SDS011;57706;56.326;43.882;2023-11-25T10:03:33;28.05;;;14.05;;
70301;SDS011;57706;56.326;43.882;2023-11-25T10:06:02;26.20;;;12.50;;
70301;SDS011;57706;56.326;43.882;2023-11-25T10:08:28;27.38;;;12.20;;
70301;SDS011;57706;56.326;43.882;2023-11-25T10:13:43;25.85;;;12.65;;
70301;SDS011;57706;56.326;43.882;2023-11-25T10:16:09;28.25;;;12.57;;
70301;SDS011;57706;56.326;43.882;2023-11-25T10:18:36;24.17;;;11.98;;
70301;SDS011;57706;56.326;43.882;2023-11-25T10:21:06;25.52;;;13.88;;
70301;SDS011;57706;56.326;43.882;2023-11-25T10:23:33;26.60;;;13.25;;
70301;SDS011;57706;56.326;43.882;2023-11-25T10:26:01;24.35;;;11.60;;
70301;SDS011;57706;56.326;43.882;2023-11-25T10:28:34;27.70;;;14.32;;
70301;SDS011;57706;56.326;43.882;2023-11-25T10:31:04;30.85;;;14.50;;
70301;SDS011;57706;56.326;43.882;2023-11-25T10:33:31;27.13;;;13.55;;
70301;SDS011;57706;56.326;43.882;2023-11-25T10:35:58;26.38;;;13.98;;
70301;SDS011;57706;56.326;43.882;2023-11-25T10:38:25;30.88;;;14.20;;
70301;SDS011;57706;56.326;43.882;2023-11-25T10:41:03;26.25;;;12.75;;
70301;SDS011;57706;56.326;43.882;2023-11-25T10:43:31;27.27;;;13.63;;
70301;SDS011;57706;56.326;43.882;2023-11-25T10:46:04;25.98;;;12.45;;
70301;SDS011;57706;56.326;43.882;2023-11-25T10:48:31;25.50;;;12.73;;
70301;SDS011;57706;56.326;43.882;2023-11-25T10:50:58;26.25;;;12.70;;
70301;SDS011;57706;56.326;43.882;2023-11-25T10:53:28;26.77;;;14.02;;
70301;SDS011;57706;56.326;43.882;2023-11-25T10:55:59;26.75;;;12.63;;
70301;SDS011;57706;56.326;43.882;2023-11-25T10:58:26;30.60;;;13.85;;
70301;SDS011;57706;56.326;43.882;2023-11-25T11:00:54;29.98;;;13.95;;
70301;SDS011;57706;56.326;43.882;2023-11-25T11:03:21;26.92;;;12.90;;
70301;SDS011;57706;56.326;43.882;2023-11-25T11:05:57;26.55;;;12.43;;
70301;SDS011;57706;56.326;43.882;2023-11-25T11:08:30;22.02;;;11.18;;
70301;SDS011;57706;56.326;43.882;2023-11-25T11:11:02;26.98;;;13.13;;
70301;SDS011;57706;56.326;43.882;2023-11-25T11:13:42;26.35;;;12.07;;
70301;SDS011;57706;56.326;43.882;2023-11-25T11:16:21;24.63;;;13.85;;
70301;SDS011;57706;56.326;43.882;2023-11-25T11:18:52;24.75;;;13.60;;
70301;SDS011;57706;56.326;43.882;2023-11-25T11:21:22;29.52;;;12.50;;
70301;SDS011;57706;56.326;43.882;2023-11-25T11:23:53;26.05;;;13.25;;
70301;SDS011;57706;56.326;43.882;2023-11-25T11:26:26;27.80;;;12.43;;
70301;SDS011;57706;56.326;43.882;2023-11-25T11:29:30;26.27;;;14.05;;
70301;SDS011;57706;56.326;43.882;2023-11-25T11:32:06;27.73;;;13.30;;
70301;SDS011;57706;56.326;43.882;2023-11-25T11:34:34;24.10;;;12.13;;
70301;SDS011;57706;56.326;43.882;2023-11-25T11:37:04;28.48;;;12.75;;
70301;SDS011;57706;56.326;43.882;2023-11-25T11:39:33;25.20;;;12.55;;
70301;SDS011;57706;56.326;43.882;2023-11-25T11:45:10;23.27;;;12.57;;
70301;SDS011;57706;56.326;43.882;2023-11-25T11:50:18;25.50;;;12.95;;
70301;SDS011;57706;56.326;43.882;2023-11-25T11:52:45;26.45;;;12.95;;
70301;SDS011;57706;56.326;43.882;2023-11-25T11:55:41;26.95;;;13.00;;
70301;SDS011;57706;56.326;43.882;2023-11-25T11:58:22;28.08;;;12.75;;
70301;SDS011;57706;56.326;43.882;2023-11-25T12:03:29;26.35;;;12.65;;
70301;SDS011;57706;56.326;43.882;2023-11-25T12:05:56;28.65;;;12.88;;
70301;SDS011;57706;56.326;43.882;2023-11-25T12:08:22;25.88;;;12.25;;
70301;SDS011;57706;56.326;43.882;2023-11-25T12:10:48;27.02;;;13.68;;
70301;SDS011;57706;56.326;43.882;2023-11-25T12:13:31;29.63;;;14.15;;
70301;SDS011;57706;56.326;43.882;2023-11-25T12:15:59;27.70;;;13.98;;
70301;SDS011;57706;56.326;43.882;2023-11-25T12:18:26;27.48;;;14.18;;
70301;SDS011;57706;56.326;43.882;2023-11-25T12:20:54;33.30;;;14.93;;
70301;SDS011;57706;56.326;43.882;2023-11-25T12:23:23;27.55;;;12.85;;
70301;SDS011;57706;56.326;43.882;2023-11-25T12:25:52;26.75;;;13.32;;
70301;SDS011;57706;56.326;43.882;2023-11-25T12:28:18;30.17;;;13.05;;
70301;SDS011;57706;56.326;43.882;2023-11-25T12:30:49;25.83;;;14.27;;
70301;SDS011;57706;56.326;43.882;2023-11-25T12:33:17;31.90;;;14.85;;
70301;SDS011;57706;56.326;43.882;2023-11-25T12:35:44;31.05;;;13.60;;
70301;SDS011;57706;56.326;43.882;2023-11-25T12:38:11;28.48;;;13.45;;
70301;SDS011;57706;56.326;43.882;2023-11-25T12:40:38;33.13;;;15.27;;
70301;SDS011;57706;56.326;43.882;2023-11-25T12:43:06;26.30;;;14.20;;
70301;SDS011;57706;56.326;43.882;2023-11-25T12:45:35;33.55;;;13.57;;
70301;SDS011;57706;56.326;43.882;2023-11-25T12:48:03;29.35;;;13.27;;
70301;SDS011;57706;56.326;43.882;2023-11-25T12:50:35;29.17;;;14.82;;
70301;SDS011;57706;56.326;43.882;2023-11-25T12:53:25;32.60;;;15.93;;
70301;SDS011;57706;56.326;43.882;2023-11-25T12:55:51;34.70;;;15.63;;
70301;SDS011;57706;56.326;43.882;2023-11-25T12:58:18;49.03;;;23.92;;
70301;SDS011;57706;56.326;43.882;2023-11-25T13:00:51;30.00;;;13.65;;
70301;SDS011;57706;56.326;43.882;2023-11-25T13:03:21;33.20;;;14.35;;
70301;SDS011;57706;56.326;43.882;2023-11-25T13:05:57;30.30;;;14.30;;
70301;SDS011;57706;56.326;43.882;2023-11-25T13:08:28;30.33;;;14.55;;
70301;SDS011;57706;56.326;43.882;2023-11-25T13:10:58;38.45;;;20.23;;
70301;SDS011;57706;56.326;43.882;2023-11-25T13:13:29;34.45;;;17.50;;
70301;SDS011;57706;56.326;43.882;2023-11-25T13:15:56;36.88;;;16.65;;
70301;SDS011;57706;56.326;43.882;2023-11-25T13:18:23;34.85;;;15.73;;
70301;SDS011;57706;56.326;43.882;2023-11-25T13:20:50;35.97;;;17.45;;
70301;SDS011;57706;56.326;43.882;2023-11-25T13:23:17;38.35;;;18.38;;
70301;SDS011;57706;56.326;43.882;2023-11-25T13:25:45;38.80;;;16.77;;
70301;SDS011;57706;56.326;43.882;2023-11-25T13:28:12;31.95;;;15.95;;
70301;SDS011;57706;56.326;43.882;2023-11-25T13:30:42;35.60;;;16.42;;
70301;SDS011;57706;56.326;43.882;2023-11-25T13:33:08;35.20;;;16.85;;
70301;SDS011;57706;56.326;43.882;2023-11-25T13:35:38;38.40;;;15.95;;
70301;SDS011;57706;56.326;43.882;2023-11-25T13:38:04;35.60;;;16.67;;
70301;SDS011;57706;56.326;43.882;2023-11-25T13:40:32;34.60;;;15.30;;
70301;SDS011;57706;56.326;43.882;2023-11-25T13:45:30;33.42;;;16.30;;
70301;SDS011;57706;56.326;43.882;2023-11-25T13:47:57;36.28;;;16.02;;
70301;SDS011;57706;56.326;43.882;2023-11-25T13:50:26;36.55;;;17.90;;
70301;SDS011;57706;56.326;43.882;2023-11-25T13:52:53;38.92;;;16.52;;
70301;SDS011;57706;56.326;43.882;2023-11-25T13:55:19;35.40;;;15.52;;
70301;SDS011;57706;56.326;43.882;2023-11-25T13:57:46;35.40;;;16.85;;
70301;SDS011;57706;56.326;43.882;2023-11-25T14:00:13;36.15;;;17.20;;
70301;SDS011;57706;56.326;43.882;2023-11-25T14:02:45;37.95;;;16.42;;
70301;SDS011;57706;56.326;43.882;2023-11-25T14:05:12;43.22;;;17.10;;
70301;SDS011;57706;56.326;43.882;2023-11-25T14:07:42;38.22;;;19.00;;
70301;SDS011;57706;56.326;43.882;2023-11-25T14:10:10;40.33;;;19.08;;
70301;SDS011;57706;56.326;43.882;2023-11-25T14:12:37;38.40;;;17.83;;
70301;SDS011;57706;56.326;43.882;2023-11-25T14:15:04;39.78;;;17.70;;
70301;SDS011;57706;56.326;43.882;2023-11-25T14:17:35;40.88;;;20.00;;
70301;SDS011;57706;56.326;43.882;2023-11-25T14:20:08;39.28;;;19.13;;
70301;SDS011;57706;56.326;43.882;2023-11-25T14:22:45;43.90;;;18.75;;
70301;SDS011;57706;56.326;43.882;2023-11-25T14:25:18;42.72;;;19.05;;
70301;SDS011;57706;56.326;43.882;2023-11-25T14:27:46;45.55;;;20.63;;
70301;SDS011;57706;56.326;43.882;2023-11-25T14:30:13;42.38;;;19.02;;
70301;SDS011;57706;56.326;43.882;2023-11-25T14:32:44;49.05;;;22.20;;
70301;SDS011;57706;56.326;43.882;2023-11-25T14:35:15;60.10;;;25.52;;
70301;SDS011;57706;56.326;43.882;2023-11-25T14:37:42;53.08;;;23.77;;
70301;SDS011;57706;56.326;43.882;2023-11-25T14:40:11;47.45;;;23.10;;
70301;SDS011;57706;56.326;43.882;2023-11-25T14:42:41;51.08;;;24.58;;
70301;SDS011;57706;56.326;43.882;2023-11-25T14:45:07;59.25;;;26.45;;
70301;SDS011;57706;56.326;43.882;2023-11-25T14:47:34;54.72;;;25.98;;
70301;SDS011;57706;56.326;43.882;2023-11-25T14:50:01;54.78;;;25.92;;
70301;SDS011;57706;56.326;43.882;2023-11-25T14:52:32;58.50;;;27.35;;
70301;SDS011;57706;56.326;43.882;2023-11-25T14:54:58;66.00;;;27.77;;
70301;SDS011;57706;56.326;43.882;2023-11-25T14:57:24;66.20;;;28.63;;
70301;SDS011;57706;56.326;43.882;2023-11-25T14:59:50;49.40;;;24.90;;
70301;SDS011;57706;56.326;43.882;2023-11-25T15:02:16;54.75;;;25.10;;
70301;SDS011;57706;56.326;43.882;2023-11-25T15:04:42;54.75;;;22.13;;
70301;SDS011;57706;56.326;43.882;2023-11-25T15:07:09;54.67;;;23.63;;
70301;SDS011;57706;56.326;43.882;2023-11-25T15:09:35;52.20;;;25.73;;
70301;SDS011;57706;56.326;43.882;2023-11-25T15:12:01;59.25;;;26.20;;
70301;SDS011;57706;56.326;43.882;2023-11-25T15:14:27;51.25;;;24.10;;
70301;SDS011;57706;56.326;43.882;2023-11-25T15:16:53;64.63;;;25.35;;
70301;SDS011;57706;56.326;43.882;2023-11-25T15:19:20;57.67;;;26.70;;
70301;SDS011;57706;56.326;43.882;2023-11-25T15:21:47;71.63;;;30.25;;
70301;SDS011;57706;56.326;43.882;2023-11-25T15:24:16;64.15;;;27.33;;
70301;SDS011;57706;56.326;43.882;2023-11-25T15:26:45;65.75;;;26.00;;
70301;SDS011;57706;56.326;43.882;2023-11-25T15:29:12;78.68;;;31.48;;
70301;SDS011;57706;56.326;43.882;2023-11-25T15:31:38;65.80;;;27.48;;
70301;SDS011;57706;56.326;43.882;2023-11-25T15:34:08;67.47;;;28.30;;
70301;SDS011;57706;56.326;43.882;2023-11-25T15:36:34;66.13;;;29.95;;
70301;SDS011;57706;56.326;43.882;2023-11-25T15:39:03;58.80;;;25.48;;
70301;SDS011;57706;56.326;43.882;2023-11-25T15:41:33;52.60;;;24.48;;
70301;SDS011;57706;56.326;43.882;2023-11-25T15:44:00;48.17;;;19.40;;
70301;SDS011;57706;56.326;43.882;2023-11-25T15:46:27;52.88;;;21.02;;
70301;SDS011;57706;56.326;43.882;2023-11-25T15:48:55;47.67;;;19.63;;
70301;SDS011;57706;56.326;43.882;2023-11-25T15:51:22;44.42;;;19.38;;